Time;durP1;ratioP1;P1;durP2;ratioP2;P2;SDS_P1;SDS_P2;PMS_P1;PMS_P2;Temp;Humidity;BMP_temperature;BMP_pressure;BME280_temperature;BME280_humidity;BME280_pressure;Samples;Min_cycle;Max_cycle;Signal;HPM_P1;HPM_P2
2021/07/16 00:00:02;;;;;;;;;;;;;;;;;;1409516;41;22549;-82
2021/07/16 00:01:03;;;;;;;;;;;;;;;;;;1418895;41;20462;-78
2021/07/16 00:02:07;;;;;;;;;;;;;;;;;;1399673;41;20984;-81
2021/07/16 00:03:07;;;;;;;;;;;;;;;;;;1416212;41;21438;-79
2021/07/16 00:04:09;;;;;;;;;;;;;;;;;;1429276;41;19955;-80
2021/07/16 00:05:10;;;;;;;;;;;;;;;;;;1424325;41;20038;-81
2021/07/16 00:06:10;;;;;;;;;;;;;;;;;;1416800;41;20154;-82
2021/07/16 00:07:11;;;;;;;;;;;;;;;;;;1414992;41;19941;-82
2021/07/16 00:08:11;;;;;;;;;;;;;;;;;;1420099;41;19992;-82
2021/07/16 00:09:12;;;;;;;;;;;;;;;;;;1420518;41;19936;-82
2021/07/16 00:10:14;;;;;;;;;;;;;;;;;;1419155;41;21538;-77
2021/07/16 00:11:14;;;;;;;;;;;;;;;;;;1422867;41;20525;-82
2021/07/16 00:12:15;;;;;;;;;;;;;;;;;;1424592;41;19949;-77
2021/07/16 00:13:15;;;;;;;;;;;;;;;;;;1420130;41;20083;-78
2021/07/16 00:14:15;;;;;;;;;;;;;;;;;;1423953;41;19987;-81
2021/07/16 00:15:17;;;;;;;;;;;;;;;;;;1417984;41;19946;-82
2021/07/16 00:16:17;;;;;;;;;;;;;;;;;;1411985;42;19942;-79
2021/07/16 00:17:18;;;;;;;;;;;;;;;;;;1407052;42;20213;-81
2021/07/16 00:18:18;;;;;;;;;;;;;;;;;;1406536;42;19966;-81
2021/07/16 00:19:18;;;;;;;;;;;;;;;;;;1402242;42;19969;-82
2021/07/16 00:20:20;;;;;;;;;;;;;;;;;;1406323;42;21188;-82
2021/07/16 00:21:21;;;;;;;;;;;;;;;;;;1408449;42;19964;-83
2021/07/16 00:22:23;;;;;;;;;;;;;;;;;;1409012;42;20250;-82
2021/07/16 00:23:23;;;;;;;;;;;;;;;;;;1404329;41;19950;-83
2021/07/16 00:24:24;;;;;;;;;;;;;;;;;;1405133;42;19942;-82
2021/07/16 00:25:24;;;;;;;;;;;;;;;;;;1410242;42;20005;-82
2021/07/16 00:26:25;;;;;;;;;;;;;;;;;;1409612;41;19952;-82
2021/07/16 00:27:25;;;;;;;;;;;;;;;;;;1414452;41;20027;-82
2021/07/16 00:28:26;;;;;;;;;;;;;;;;;;1419082;41;20922;-82
2021/07/16 00:29:28;;;;;;;;;;;;;;;;;;1419653;41;19933;-81
2021/07/16 00:30:30;;;;;;;;;;;;;;;;;;1419386;41;20021;-82
2021/07/16 00:31:31;;;;;;;;;;;;;;;;;;1418645;41;20077;-82
2021/07/16 00:32:31;;;;;;;;;;;;;;;;;;1416270;41;19941;-81
2021/07/16 00:33:34;;;;;;;;;;;;;;;;;;1424628;41;19937;-81
2021/07/16 00:34:35;;;;;;;;;;;;;;;;;;1429220;41;19944;-80
2021/07/16 00:35:35;;;;;;;;;;;;;;;;;;1427460;41;20000;-80
2021/07/16 00:36:36;;;;;;;;;;;;;;;;;;1429854;41;19976;-81
2021/07/16 00:37:39;;;;;;;;;;;;;;;;;;1426610;41;20091;-82
2021/07/16 00:38:40;;;;;;;;;;;;;;;;;;1430770;41;19955;-79
2021/07/16 00:39:41;;;;;;;;;;;;;;;;;;1432045;41;20050;-82
2021/07/16 00:40:43;;;;;;;;;;;;;;;;;;1429751;41;20025;-80
2021/07/16 00:41:43;;;;;;;;;;;;;;;;;;1430748;41;19994;-80
2021/07/16 00:42:44;;;;;;;;;;;;;;;;;;1430163;41;19957;-80
2021/07/16 00:43:44;;;;;;;;;;;;;;;;;;1438319;41;20185;-80
2021/07/16 00:44:44;;;;;;;;;;;;;;;;;;1446264;40;20018;-81
2021/07/16 00:45:45;;;;;;;;;;;;;;;;;;1449678;40;19931;-81
2021/07/16 00:46:46;;;;;;;;;;;;;;;;;;1448661;40;20145;-80
2021/07/16 00:47:47;;;;;;;;;;;;;;;;;;1453453;40;19939;-84
2021/07/16 00:48:48;;;;;;;;;;;;;;;;;;1454438;40;19934;-81
2021/07/16 00:49:49;;;;;;;;;;;;;;;;;;1460729;40;20056;-82
2021/07/16 00:50:49;;;;;;;;;;;;;;;;;;1462414;40;19937;-81
2021/07/16 00:51:50;;;;;;;;;;;;;;;;;;1455884;40;19993;-82
2021/07/16 00:52:50;;;;;;;;;;;;;;;;;;1451339;40;19934;-82
2021/07/16 00:53:50;;;;;;;;;;;;;;;;;;1447049;40;19970;-82
2021/07/16 00:54:51;;;;;;;;;;;;;;;;;;1455523;40;19946;-82
2021/07/16 00:55:52;;;;;;;;;;;;;;;;;;1461181;40;20285;-82
2021/07/16 00:56:52;;;;;;;;;;;;;;;;;;1456838;40;20158;-82
2021/07/16 00:58:06;;;;;;;;;;;;;;;;;;1455167;40;20203;-84
2021/07/16 00:59:13;;;;;;;;;;;;;;;;;;1455194;40;19938;-83
2021/07/16 01:00:13;;;;;;;;;;;;;;;;;;1446843;40;19943;-78
2021/07/16 01:01:14;;;;;;;;;;;;;;;;;;1450246;40;19955;-78
2021/07/16 01:02:14;;;;;;;;;;;;;;;;;;1453448;40;19957;-81
2021/07/16 01:03:15;;;;;;;;;;;;;;;;;;1446546;40;20168;-81
2021/07/16 01:04:15;;;;;;;;;;;;;;;;;;1446262;41;20306;-79
2021/07/16 01:05:16;;;;;;;;;;;;;;;;;;1444666;41;20051;-83
2021/07/16 01:06:17;;;;;;;;;;;;;;;;;;1446191;41;20168;-81
2021/07/16 01:07:19;;;;;;;;;;;;;;;;;;1442338;41;19940;-82
2021/07/16 01:08:19;;;;;;;;;;;;;;;;;;1439347;41;20063;-83
2021/07/16 01:09:19;;;;;;;;;;;;;;;;;;1441160;41;19939;-82
2021/07/16 01:10:20;;;;;;;;;;;;;;;;;;1440427;41;20347;-83
2021/07/16 01:11:21;;;;;;;;;;;;;;;;;;1448313;40;21691;-83
2021/07/16 01:12:21;;;;;;;;;;;;;;;;;;1456287;40;20073;-82
2021/07/16 01:13:22;;;;;;;;;;;;;;;;;;1443011;40;20179;-82
2021/07/16 01:14:23;;;;;;;;;;;;;;;;;;1444823;41;20061;-86
2021/07/16 01:15:24;;;;;;;;;;;;;;;;;;1446873;41;19941;-83
2021/07/16 01:16:26;;;;;;;;;;;;;;;;;;1454726;40;20526;-82
2021/07/16 01:17:26;;;;;;;;;;;;;;;;;;1456707;40;19995;-81
2021/07/16 01:18:27;;;;;;;;;;;;;;;;;;1449419;40;19983;-81
2021/07/16 01:19:41;;;;;;;;;;;;;;;;;;1447913;40;19938;-81
2021/07/16 01:20:41;;;;;;;;;;;;;;;;;;1444659;41;20000;-81
2021/07/16 01:21:41;;;;;;;;;;;;;;;;;;1443424;40;19970;-81
2021/07/16 01:22:43;;;;;;;;;;;;;;;;;;1432211;40;20030;-81
2021/07/16 01:23:44;;;;;;;;;;;;;;;;;;1432402;41;19939;-81
2021/07/16 01:24:44;;;;;;;;;;;;;;;;;;1434454;41;20250;-82
2021/07/16 01:25:45;;;;;;;;;;;;;;;;;;1435455;41;20559;-82
2021/07/16 01:26:45;;;;;;;;;;;;;;;;;;1443400;41;19932;-82
2021/07/16 01:27:49;;;;;;;;;;;;;;;;;;1437545;41;19939;-82
2021/07/16 01:28:50;;;;;;;;;;;;;;;;;;1438007;41;20040;-81
2021/07/16 01:29:51;;;;;;;;;;;;;;;;;;1439560;41;19951;-85
2021/07/16 01:30:53;;;;;;;;;;;;;;;;;;1433340;41;19995;-82
2021/07/16 01:31:53;;;;;;;;;;;;;;;;;;1434974;41;20145;-81
2021/07/16 01:32:53;;;;;;;;;;;;;;;;;;1444326;41;20424;-82
2021/07/16 01:33:54;;;;;;;;;;;;;;;;;;1440580;41;20139;-82
2021/07/16 01:34:54;;;;;;;;;;;;;;;;;;1443261;41;20009;-81
2021/07/16 01:35:54;;;;;;;;;;;;;;;;;;1439072;41;20160;-82
2021/07/16 01:36:55;;;;;;;;;;;;;;;;;;1434389;41;19935;-82
2021/07/16 01:37:55;;;;;;;;;;;;;;;;;;1434755;41;19936;-81
2021/07/16 01:38:55;;;;;;;;;;;;;;;;;;1439447;41;19936;-82
2021/07/16 01:39:57;;;;;;;;;;;;;;;;;;1438077;41;20098;-82
2021/07/16 01:40:58;;;;;;;;;;;;;;;;;;1441566;41;21381;-82
2021/07/16 01:42:01;;;;;;;;;;;;;;;;;;1441990;41;19942;-84
2021/07/16 01:43:02;;;;;;;;;;;;;;;;;;1444311;40;20033;-82
2021/07/16 01:44:04;;;;;;;;;;;;;;;;;;1445096;40;19954;-83
2021/07/16 01:45:05;;;;;;;;;;;;;;;;;;1446505;40;19955;-81
2021/07/16 01:46:05;;;;;;;;;;;;;;;;;;1449058;40;19954;-82
2021/07/16 01:47:06;;;;;;;;;;;;;;;;;;1440861;41;20339;-82
2021/07/16 01:48:07;;;;;;;;;;;;;;;;;;1436550;41;19940;-82
2021/07/16 01:49:08;;;;;;;;;;;;;;;;;;1430388;41;20288;-83
2021/07/16 01:50:08;;;;;;;;;;;;;;;;;;1423062;41;20060;-83
2021/07/16 01:51:08;;;;;;;;;;;;;;;;;;1427020;41;20424;-83
2021/07/16 01:52:09;;;;;;;;;;;;;;;;;;1431686;41;20361;-83
2021/07/16 01:53:11;;;;;;;;;;;;;;;;;;1419929;41;21472;-82
2021/07/16 01:54:11;;;;;;;;;;;;;;;;;;1437022;40;20010;-85
2021/07/16 01:55:12;;;;;;;;;;;;;;;;;;1449138;40;20152;-83
2021/07/16 01:56:12;;;;;;;;;;;;;;;;;;1449601;40;20414;-82
2021/07/16 01:57:15;;;;;;;;;;;;;;;;;;1452708;40;20049;-82
2021/07/16 01:58:22;;;;;;;;;;;;;;;;;;1439528;40;19978;-83
2021/07/16 01:59:23;;;;;;;;;;;;;;;;;;1443431;41;19936;-83
2021/07/16 02:00:25;;;;;;;;;;;;;;;;;;1447273;40;20547;-82
2021/07/16 02:01:26;;;;;;;;;;;;;;;;;;1447748;40;19943;-82
2021/07/16 02:02:26;;;;;;;;;;;;;;;;;;1447438;40;19946;-82
2021/07/16 02:03:26;;;;;;;;;;;;;;;;;;1447158;40;19935;-84
2021/07/16 02:04:27;;;;;;;;;;;;;;;;;;1455058;40;19938;-83
2021/07/16 02:05:28;;;;;;;;;;;;;;;;;;1449515;40;19935;-83
2021/07/16 02:06:30;;;;;;;;;;;;;;;;;;1452984;40;19941;-82
2021/07/16 02:07:30;;;;;;;;;;;;;;;;;;1445933;40;19942;-83
2021/07/16 02:08:31;;;;;;;;;;;;;;;;;;1435193;40;19955;-81
2021/07/16 02:09:31;;;;;;;;;;;;;;;;;;1451507;40;19945;-82
2021/07/16 02:10:31;;;;;;;;;;;;;;;;;;1452826;40;19945;-82
2021/07/16 02:11:32;;;;;;;;;;;;;;;;;;1455064;40;19949;-82
2021/07/16 02:12:32;;;;;;;;;;;;;;;;;;1454904;40;20170;-82
2021/07/16 02:13:32;;;;;;;;;;;;;;;;;;1449478;40;20447;-82
2021/07/16 02:14:33;;;;;;;;;;;;;;;;;;1446005;40;19942;-82
2021/07/16 02:15:35;;;;;;;;;;;;;;;;;;1455704;40;19977;-82
2021/07/16 02:16:36;;;;;;;;;;;;;;;;;;1453451;40;19934;-82
2021/07/16 02:17:36;;;;;;;;;;;;;;;;;;1447749;40;19939;-82
2021/07/16 02:18:36;;;;;;;;;;;;;;;;;;1447818;40;19939;-82
2021/07/16 02:19:37;;;;;;;;;;;;;;;;;;1449441;40;19946;-84
2021/07/16 02:20:38;;;;;;;;;;;;;;;;;;1448777;40;19935;-83
2021/07/16 02:21:38;;;;;;;;;;;;;;;;;;1445625;40;19942;-82
2021/07/16 02:22:39;;;;;;;;;;;;;;;;;;1439196;40;20327;-82
2021/07/16 02:23:39;;;;;;;;;;;;;;;;;;1435923;40;19951;-83
2021/07/16 02:24:39;;;;;;;;;;;;;;;;;;1449150;40;19946;-82
2021/07/16 02:25:40;;;;;;;;;;;;;;;;;;1453669;40;19938;-82
2021/07/16 02:26:40;;;;;;;;;;;;;;;;;;1457817;40;19938;-83
2021/07/16 02:27:48;;;;;;;;;;;;;;;;;;1461806;40;20227;-82
2021/07/16 02:28:49;;;;;;;;;;;;;;;;;;1412566;41;19939;-82
2021/07/16 02:29:50;;;;;;;;;;;;;;;;;;1446081;40;19950;-81
2021/07/16 02:30:52;;;;;;;;;;;;;;;;;;1443186;40;26201;-77
2021/07/16 02:31:52;;;;;;;;;;;;;;;;;;1433174;40;19942;-80
2021/07/16 02:32:53;;;;;;;;;;;;;;;;;;1434878;40;19947;-82
2021/07/16 02:33:54;;;;;;;;;;;;;;;;;;1431329;41;20703;-81
2021/07/16 02:34:54;;;;;;;;;;;;;;;;;;1442980;40;19939;-78
2021/07/16 02:35:55;;;;;;;;;;;;;;;;;;1433933;41;21423;-81
2021/07/16 02:36:55;;;;;;;;;;;;;;;;;;1444964;40;20014;-77
2021/07/16 02:37:55;;;;;;;;;;;;;;;;;;1452309;40;19945;-81
2021/07/16 02:38:56;;;;;;;;;;;;;;;;;;1448516;40;19938;-82
2021/07/16 02:39:56;;;;;;;;;;;;;;;;;;1456645;40;20507;-81
2021/07/16 02:40:56;;;;;;;;;;;;;;;;;;1457204;40;20040;-81
2021/07/16 02:41:57;;;;;;;;;;;;;;;;;;1459624;40;20053;-82
2021/07/16 02:42:57;;;;;;;;;;;;;;;;;;1449620;40;19974;-82
2021/07/16 02:43:59;;;;;;;;;;;;;;;;;;1456490;40;19969;-82
2021/07/16 02:44:59;;;;;;;;;;;;;;;;;;1454051;40;19942;-81
2021/07/16 02:45:59;;;;;;;;;;;;;;;;;;1457142;40;20014;-81
2021/07/16 02:47:00;;;;;;;;;;;;;;;;;;1451875;40;20140;-83
2021/07/16 02:48:00;;;;;;;;;;;;;;;;;;1457181;40;19938;-82
2021/07/16 02:49:01;;;;;;;;;;;;;;;;;;1444124;40;20002;-83
2021/07/16 02:50:01;;;;;;;;;;;;;;;;;;1454228;40;20367;-82
2021/07/16 02:51:02;;;;;;;;;;;;;;;;;;1457458;40;19934;-83
2021/07/16 02:52:02;;;;;;;;;;;;;;;;;;1456339;40;20395;-82
2021/07/16 02:53:04;;;;;;;;;;;;;;;;;;1447162;40;20285;-82
2021/07/16 02:54:04;;;;;;;;;;;;;;;;;;1451816;40;19943;-82
2021/07/16 02:55:05;;;;;;;;;;;;;;;;;;1457074;40;20041;-80
2021/07/16 02:56:05;;;;;;;;;;;;;;;;;;1454189;40;19946;-81
2021/07/16 02:57:05;;;;;;;;;;;;;;;;;;1455823;40;20077;-82
2021/07/16 02:58:09;;;;;;;;;;;;;;;;;;1457162;40;19938;-82
2021/07/16 02:59:16;;;;;;;;;;;;;;;;;;1452678;40;19963;-81
2021/07/16 03:00:24;;;;;;;;;;;;;;;;;;1447935;40;19999;-82
2021/07/16 03:01:25;;;;;;;;;;;;;;;;;;1457977;40;19954;-82
2021/07/16 03:02:29;;;;;;;;;;;;;;;;;;1457058;40;19930;-82
2021/07/16 03:03:29;;;;;;;;;;;;;;;;;;1460564;40;19941;-84
2021/07/16 03:04:29;;;;;;;;;;;;;;;;;;1461530;40;19946;-82
2021/07/16 03:05:31;;;;;;;;;;;;;;;;;;1461182;40;19948;-82
2021/07/16 03:06:32;;;;;;;;;;;;;;;;;;1458381;40;19957;-83
2021/07/16 03:07:33;;;;;;;;;;;;;;;;;;1460251;40;19934;-82
2021/07/16 03:08:33;;;;;;;;;;;;;;;;;;1458023;40;20417;-82
2021/07/16 03:09:36;;;;;;;;;;;;;;;;;;1456252;40;20016;-82
2021/07/16 03:10:38;;;;;;;;;;;;;;;;;;1447482;40;19942;-82
2021/07/16 03:11:38;;;;;;;;;;;;;;;;;;1457061;40;19946;-82
2021/07/16 03:12:39;;;;;;;;;;;;;;;;;;1454583;40;20352;-81
2021/07/16 03:13:41;;;;;;;;;;;;;;;;;;1457640;40;19950;-82
2021/07/16 03:14:41;;;;;;;;;;;;;;;;;;1457854;40;19934;-81
2021/07/16 03:15:42;;;;;;;;;;;;;;;;;;1452105;40;20341;-82
2021/07/16 03:16:42;;;;;;;;;;;;;;;;;;1445672;40;19942;-83
2021/07/16 03:17:43;;;;;;;;;;;;;;;;;;1450157;40;19938;-80
2021/07/16 03:18:43;;;;;;;;;;;;;;;;;;1442833;40;19983;-82
2021/07/16 03:19:44;;;;;;;;;;;;;;;;;;1450211;40;21582;-79
2021/07/16 03:20:45;;;;;;;;;;;;;;;;;;1449573;40;19950;-79
2021/07/16 03:21:45;;;;;;;;;;;;;;;;;;1451821;40;20198;-82
2021/07/16 03:22:46;;;;;;;;;;;;;;;;;;1453296;40;20027;-82
2021/07/16 03:23:46;;;;;;;;;;;;;;;;;;1452253;40;19943;-83
2021/07/16 03:24:46;;;;;;;;;;;;;;;;;;1454393;40;20022;-82
2021/07/16 03:25:47;;;;;;;;;;;;;;;;;;1447151;40;20248;-83
2021/07/16 03:26:47;;;;;;;;;;;;;;;;;;1452520;40;19946;-82
2021/07/16 03:27:48;;;;;;;;;;;;;;;;;;1448566;40;20070;-82
2021/07/16 03:28:48;;;;;;;;;;;;;;;;;;1445051;41;20067;-82
2021/07/16 03:29:48;;;;;;;;;;;;;;;;;;1449344;40;20090;-81
2021/07/16 03:30:49;;;;;;;;;;;;;;;;;;1450240;40;20040;-82
2021/07/16 03:31:49;;;;;;;;;;;;;;;;;;1444504;40;20228;-82
2021/07/16 03:32:50;;;;;;;;;;;;;;;;;;1449240;40;20217;-81
2021/07/16 03:33:50;;;;;;;;;;;;;;;;;;1448399;40;19950;-81
2021/07/16 03:34:50;;;;;;;;;;;;;;;;;;1452402;40;20109;-82
2021/07/16 03:35:51;;;;;;;;;;;;;;;;;;1455892;40;20606;-81
2021/07/16 03:36:51;;;;;;;;;;;;;;;;;;1443963;40;20057;-80
2021/07/16 03:37:54;;;;;;;;;;;;;;;;;;1446426;40;19950;-81
2021/07/16 03:38:55;;;;;;;;;;;;;;;;;;1443546;41;20239;-81
2021/07/16 03:39:56;;;;;;;;;;;;;;;;;;1446257;41;19954;-79
2021/07/16 03:40:58;;;;;;;;;;;;;;;;;;1446922;41;19955;-82
2021/07/16 03:41:59;;;;;;;;;;;;;;;;;;1438461;40;20210;-80
2021/07/16 03:43:00;;;;;;;;;;;;;;;;;;1445712;40;20462;-79
2021/07/16 03:44:00;;;;;;;;;;;;;;;;;;1452096;40;20084;-80
2021/07/16 03:45:01;;;;;;;;;;;;;;;;;;1459606;40;19946;-80
2021/07/16 03:46:01;;;;;;;;;;;;;;;;;;1460948;40;21624;-86
2021/07/16 03:47:01;;;;;;;;;;;;;;;;;;1463050;40;20984;-78
2021/07/16 03:48:02;;;;;;;;;;;;;;;;;;1460930;40;20469;-81
2021/07/16 03:49:03;;;;;;;;;;;;;;;;;;1457259;40;20350;-78
2021/07/16 03:50:03;;;;;;;;;;;;;;;;;;1454980;40;20991;-78
2021/07/16 03:51:04;;;;;;;;;;;;;;;;;;1461901;40;20367;-81
2021/07/16 03:52:04;;;;;;;;;;;;;;;;;;1458176;40;19966;-80
2021/07/16 03:53:04;;;;;;;;;;;;;;;;;;1458176;40;20273;-79
2021/07/16 03:54:05;;;;;;;;;;;;;;;;;;1458462;40;19934;-81
2021/07/16 03:55:08;;;;;;;;;;;;;;;;;;1456552;40;19934;-80
2021/07/16 03:56:08;;;;;;;;;;;;;;;;;;1454920;40;20034;-79
2021/07/16 03:57:10;;;;;;;;;;;;;;;;;;1453314;40;19946;-79
2021/07/16 03:58:10;;;;;;;;;;;;;;;;;;1448399;40;19942;-81
2021/07/16 03:59:11;;;;;;;;;;;;;;;;;;1459358;40;19942;-82
2021/07/16 04:00:18;;;;;;;;;;;;;;;;;;1456942;40;20032;-82
2021/07/16 04:01:19;;;;;;;;;;;;;;;;;;1452680;40;20033;-82
2021/07/16 04:02:19;;;;;;;;;;;;;;;;;;1446980;40;19982;-82
2021/07/16 04:03:21;;;;;;;;;;;;;;;;;;1448459;40;19938;-83
2021/07/16 04:04:21;;;;;;;;;;;;;;;;;;1451255;40;19950;-82
2021/07/16 04:05:22;;;;;;;;;;;;;;;;;;1446981;40;19986;-86
2021/07/16 04:06:23;;;;;;;;;;;;;;;;;;1444869;40;20282;-82
2021/07/16 04:07:28;;;;;;;;;;;;;;;;;;1442894;40;20091;-81
2021/07/16 04:08:34;;;;;;;;;;;;;;;;;;1444265;40;20088;-82
2021/07/16 04:09:34;;;;;;;;;;;;;;;;;;1447206;40;19951;-81
2021/07/16 04:10:36;;;;;;;;;;;;;;;;;;1443277;40;20087;-82
2021/07/16 04:11:38;;;;;;;;;;;;;;;;;;1447183;40;19939;-82
2021/07/16 04:12:39;;;;;;;;;;;;;;;;;;1446348;40;20087;-81
2021/07/16 04:13:39;;;;;;;;;;;;;;;;;;1436372;40;21172;-82
2021/07/16 04:14:43;;;;;;;;;;;;;;;;;;1436982;41;20037;-87
2021/07/16 04:15:43;;;;;;;;;;;;;;;;;;1446818;40;20004;-83
2021/07/16 04:16:44;;;;;;;;;;;;;;;;;;1451611;40;20058;-81
2021/07/16 04:17:44;;;;;;;;;;;;;;;;;;1450324;40;21521;-83
2021/07/16 04:18:44;;;;;;;;;;;;;;;;;;1453995;40;20355;-82
2021/07/16 04:19:45;;;;;;;;;;;;;;;;;;1454072;40;20095;-84
2021/07/16 04:20:45;;;;;;;;;;;;;;;;;;1445622;41;20594;-83
2021/07/16 04:21:46;;;;;;;;;;;;;;;;;;1435364;41;20118;-80
2021/07/16 04:22:46;;;;;;;;;;;;;;;;;;1444762;41;20345;-82
2021/07/16 04:23:46;;;;;;;;;;;;;;;;;;1436924;41;19948;-82
2021/07/16 04:24:47;;;;;;;;;;;;;;;;;;1434921;41;19997;-83
2021/07/16 04:25:48;;;;;;;;;;;;;;;;;;1433269;41;19940;-81
2021/07/16 04:26:48;;;;;;;;;;;;;;;;;;1429223;41;19967;-82
2021/07/16 04:27:50;;;;;;;;;;;;;;;;;;1438414;41;19939;-83
2021/07/16 04:28:50;;;;;;;;;;;;;;;;;;1434839;41;19963;-81
2021/07/16 04:29:50;;;;;;;;;;;;;;;;;;1448084;40;19958;-83
2021/07/16 04:30:51;;;;;;;;;;;;;;;;;;1451592;40;19935;-82
2021/07/16 04:31:53;;;;;;;;;;;;;;;;;;1452225;40;19949;-82
2021/07/16 04:32:54;;;;;;;;;;;;;;;;;;1453155;40;20469;-82
2021/07/16 04:33:57;;;;;;;;;;;;;;;;;;1449780;40;19935;-82
2021/07/16 04:34:58;;;;;;;;;;;;;;;;;;1416627;40;19943;-82
2021/07/16 04:35:59;;;;;;;;;;;;;;;;;;1446930;40;20461;-82
2021/07/16 04:37:00;;;;;;;;;;;;;;;;;;1447726;40;21534;-82
2021/07/16 04:38:04;;;;;;;;;;;;;;;;;;1441373;40;19947;-86
2021/07/16 04:39:04;;;;;;;;;;;;;;;;;;1453749;40;19934;-81
2021/07/16 04:40:05;;;;;;;;;;;;;;;;;;1453057;40;20119;-82
2021/07/16 04:41:06;;;;;;;;;;;;;;;;;;1453686;40;19935;-83
2021/07/16 04:42:06;;;;;;;;;;;;;;;;;;1453691;40;20491;-84
2021/07/16 04:43:06;;;;;;;;;;;;;;;;;;1443897;40;20035;-82
2021/07/16 04:44:07;;;;;;;;;;;;;;;;;;1442078;40;20113;-83
2021/07/16 04:45:08;;;;;;;;;;;;;;;;;;1433910;41;20172;-82
2021/07/16 04:46:08;;;;;;;;;;;;;;;;;;1437002;41;20721;-82
2021/07/16 04:47:08;;;;;;;;;;;;;;;;;;1434560;41;20135;-82
2021/07/16 04:48:08;;;;;;;;;;;;;;;;;;1434127;41;20123;-84
2021/07/16 04:49:09;;;;;;;;;;;;;;;;;;1431877;41;20384;-83
2021/07/16 04:50:10;;;;;;;;;;;;;;;;;;1438741;41;20354;-82
2021/07/16 04:51:10;;;;;;;;;;;;;;;;;;1441124;41;20007;-82
2021/07/16 04:52:10;;;;;;;;;;;;;;;;;;1441389;41;20142;-82
2021/07/16 04:53:12;;;;;;;;;;;;;;;;;;1449951;40;20059;-82
2021/07/16 04:54:14;;;;;;;;;;;;;;;;;;1448610;40;19939;-83
2021/07/16 04:55:15;;;;;;;;;;;;;;;;;;1451065;40;19947;-82
2021/07/16 04:56:15;;;;;;;;;;;;;;;;;;1450209;40;19979;-81
2021/07/16 04:57:16;;;;;;;;;;;;;;;;;;1442915;41;19943;-81
2021/07/16 04:58:16;;;;;;;;;;;;;;;;;;1441112;41;20059;-83
2021/07/16 04:59:16;;;;;;;;;;;;;;;;;;1442008;41;20031;-81
2021/07/16 05:00:18;;;;;;;;;;;;;;;;;;1440640;41;19948;-82
2021/07/16 05:01:26;;;;;;;;;;;;;;;;;;1445761;40;20595;-82
2021/07/16 05:02:33;;;;;;;;;;;;;;;;;;1445164;40;20089;-82
2021/07/16 05:03:34;;;;;;;;;;;;;;;;;;1448466;40;20371;-82
2021/07/16 05:04:34;;;;;;;;;;;;;;;;;;1443986;40;20139;-82
2021/07/16 05:05:35;;;;;;;;;;;;;;;;;;1448398;40;19935;-83
2021/07/16 05:06:35;;;;;;;;;;;;;;;;;;1449481;40;19939;-85
2021/07/16 05:07:35;;;;;;;;;;;;;;;;;;1443466;41;20351;-83
2021/07/16 05:08:36;;;;;;;;;;;;;;;;;;1439819;41;19935;-83
2021/07/16 05:09:36;;;;;;;;;;;;;;;;;;1441267;41;19931;-82
2021/07/16 05:10:36;;;;;;;;;;;;;;;;;;1445109;41;19947;-82
2021/07/16 05:11:37;;;;;;;;;;;;;;;;;;1445409;41;20047;-82
2021/07/16 05:12:37;;;;;;;;;;;;;;;;;;1447260;40;19950;-82
2021/07/16 05:13:38;;;;;;;;;;;;;;;;;;1449612;40;20053;-82
2021/07/16 05:14:38;;;;;;;;;;;;;;;;;;1449375;40;19942;-83
2021/07/16 05:15:39;;;;;;;;;;;;;;;;;;1449234;40;19994;-82
2021/07/16 05:16:40;;;;;;;;;;;;;;;;;;1449103;40;19935;-82
2021/07/16 05:17:40;;;;;;;;;;;;;;;;;;1449195;40;19934;-82
2021/07/16 05:18:41;;;;;;;;;;;;;;;;;;1443545;40;20340;-82
2021/07/16 05:19:41;;;;;;;;;;;;;;;;;;1446200;40;19931;-83
2021/07/16 05:20:41;;;;;;;;;;;;;;;;;;1446547;41;20014;-82
2021/07/16 05:21:42;;;;;;;;;;;;;;;;;;1442439;41;21280;-82
2021/07/16 05:22:42;;;;;;;;;;;;;;;;;;1441481;41;19942;-82
2021/07/16 05:23:43;;;;;;;;;;;;;;;;;;1439497;41;19944;-81
2021/07/16 05:24:43;;;;;;;;;;;;;;;;;;1441782;41;20012;-82
2021/07/16 05:25:43;;;;;;;;;;;;;;;;;;1439450;41;19967;-82
2021/07/16 05:26:44;;;;;;;;;;;;;;;;;;1442644;41;20001;-83
2021/07/16 05:27:44;;;;;;;;;;;;;;;;;;1449757;40;19954;-84
2021/07/16 05:28:49;;;;;;;;;;;;;;;;;;1451507;40;19939;-83
2021/07/16 05:29:49;;;;;;;;;;;;;;;;;;1454324;40;20020;-83
2021/07/16 05:30:50;;;;;;;;;;;;;;;;;;1452708;40;19954;-83
2021/07/16 05:31:50;;;;;;;;;;;;;;;;;;1449103;40;20020;-82
2021/07/16 05:32:51;;;;;;;;;;;;;;;;;;1453914;40;19958;-86
2021/07/16 05:33:51;;;;;;;;;;;;;;;;;;1449053;40;20187;-81
2021/07/16 05:34:51;;;;;;;;;;;;;;;;;;1448500;40;19938;-83
2021/07/16 05:35:52;;;;;;;;;;;;;;;;;;1448972;40;20020;-82
2021/07/16 05:36:53;;;;;;;;;;;;;;;;;;1419995;40;20068;-82
2021/07/16 05:37:53;;;;;;;;;;;;;;;;;;1443300;41;20618;-83
2021/07/16 05:38:54;;;;;;;;;;;;;;;;;;1439247;40;20736;-82
2021/07/16 05:39:56;;;;;;;;;;;;;;;;;;1442679;41;20095;-82
2021/07/16 05:40:56;;;;;;;;;;;;;;;;;;1439030;40;21002;-82
2021/07/16 05:41:57;;;;;;;;;;;;;;;;;;1428711;40;22109;-82
2021/07/16 05:42:58;;;;;;;;;;;;;;;;;;1444855;40;20087;-82
2021/07/16 05:43:59;;;;;;;;;;;;;;;;;;1437618;40;19990;-81
2021/07/16 05:44:59;;;;;;;;;;;;;;;;;;1432110;40;21232;-84
2021/07/16 05:46:00;;;;;;;;;;;;;;;;;;1363472;41;20216;-82
2021/07/16 05:47:01;;;;;;;;;;;;;;;;;;1441233;40;20173;-78
2021/07/16 05:48:02;;;;;;;;;;;;;;;;;;1455527;40;19942;-82
2021/07/16 05:49:03;;;;;;;;;;;;;;;;;;1457874;40;19934;-84
2021/07/16 05:50:03;;;;;;;;;;;;;;;;;;1455235;40;19978;-77
2021/07/16 05:51:04;;;;;;;;;;;;;;;;;;1455302;40;19973;-76
2021/07/16 05:52:05;;;;;;;;;;;;;;;;;;1451194;40;19946;-80
2021/07/16 05:53:06;;;;;;;;;;;;;;;;;;1464072;40;19933;-76
2021/07/16 05:54:06;;;;;;;;;;;;;;;;;;1465198;40;19948;-81
2021/07/16 05:55:07;;;;;;;;;;;;;;;;;;1469584;40;19941;-81
2021/07/16 05:56:07;;;;;;;;;;;;;;;;;;1465894;40;20062;-80
2021/07/16 05:57:07;;;;;;;;;;;;;;;;;;1461857;40;19944;-75
2021/07/16 05:58:08;;;;;;;;;;;;;;;;;;1460258;40;19954;-78
2021/07/16 05:59:08;;;;;;;;;;;;;;;;;;1424683;40;19937;-78
2021/07/16 06:00:09;;;;;;;;;;;;;;;;;;1458511;40;19953;-80
2021/07/16 06:01:09;;;;;;;;;;;;;;;;;;1460962;40;19937;-82
2021/07/16 06:02:10;;;;;;;;;;;;;;;;;;1461035;40;19933;-81
2021/07/16 06:03:16;;;;;;;;;;;;;;;;;;1462544;40;20297;-82
2021/07/16 06:04:23;;;;;;;;;;;;;;;;;;1468433;40;19946;-81
2021/07/16 06:05:32;;;;;;;;;;;;;;;;;;1462424;40;19953;-79
2021/07/16 06:06:32;;;;;;;;;;;;;;;;;;1463289;40;19933;-83
2021/07/16 06:07:32;;;;;;;;;;;;;;;;;;1466146;40;21702;-86
2021/07/16 06:08:33;;;;;;;;;;;;;;;;;;1455602;40;19934;-82
2021/07/16 06:09:33;;;;;;;;;;;;;;;;;;1455983;40;19970;-83
2021/07/16 06:10:33;;;;;;;;;;;;;;;;;;1453482;40;20125;-82
2021/07/16 06:11:34;;;;;;;;;;;;;;;;;;1453919;40;20336;-82
2021/07/16 06:12:38;;;;;;;;;;;;;;;;;;1448817;40;19935;-82
2021/07/16 06:13:38;;;;;;;;;;;;;;;;;;1403232;41;20041;-82
2021/07/16 06:14:39;;;;;;;;;;;;;;;;;;1423261;41;20853;-85
2021/07/16 06:15:39;;;;;;;;;;;;;;;;;;1434356;40;20346;-82
2021/07/16 06:16:40;;;;;;;;;;;;;;;;;;1437291;40;20358;-82
2021/07/16 06:17:40;;;;;;;;;;;;;;;;;;1420167;41;20157;-82
2021/07/16 06:18:40;;;;;;;;;;;;;;;;;;1438308;40;19951;-85
2021/07/16 06:19:42;;;;;;;;;;;;;;;;;;1426606;41;20089;-82
2021/07/16 06:20:44;;;;;;;;;;;;;;;;;;1433983;41;20227;-82
2021/07/16 06:21:45;;;;;;;;;;;;;;;;;;1435285;41;19950;-84
2021/07/16 06:22:45;;;;;;;;;;;;;;;;;;1439138;41;19942;-82
2021/07/16 06:23:46;;;;;;;;;;;;;;;;;;1441679;41;19943;-82
2021/07/16 06:24:46;;;;;;;;;;;;;;;;;;1436751;41;19932;-83
2021/07/16 06:25:47;;;;;;;;;;;;;;;;;;1413486;41;19945;-82
2021/07/16 06:26:47;;;;;;;;;;;;;;;;;;1418548;41;20038;-82
2021/07/16 06:27:47;;;;;;;;;;;;;;;;;;1414246;41;19989;-83
2021/07/16 06:28:48;;;;;;;;;;;;;;;;;;1415757;41;19941;-82
2021/07/16 06:29:48;;;;;;;;;;;;;;;;;;1418696;41;19945;-82
2021/07/16 06:30:52;;;;;;;;;;;;;;;;;;1409563;41;19938;-82
2021/07/16 06:31:52;;;;;;;;;;;;;;;;;;1374611;42;22615;-82
2021/07/16 06:32:52;;;;;;;;;;;;;;;;;;1398505;41;19939;-82
2021/07/16 06:33:53;;;;;;;;;;;;;;;;;;1394969;42;22740;-83
2021/07/16 06:34:54;;;;;;;;;;;;;;;;;;1399642;42;20092;-84
2021/07/16 06:35:54;;;;;;;;;;;;;;;;;;1389273;42;20660;-82
2021/07/16 06:36:55;;;;;;;;;;;;;;;;;;1385690;42;19949;-86
2021/07/16 06:37:55;;;;;;;;;;;;;;;;;;1387731;42;19944;-83
2021/07/16 06:38:56;;;;;;;;;;;;;;;;;;1382967;42;23240;-84
2021/07/16 06:39:57;;;;;;;;;;;;;;;;;;1389889;42;20134;-83
2021/07/16 06:40:58;;;;;;;;;;;;;;;;;;1387799;42;20121;-83
2021/07/16 06:41:58;;;;;;;;;;;;;;;;;;1391185;42;20055;-86
2021/07/16 06:42:58;;;;;;;;;;;;;;;;;;1402741;42;20102;-83
2021/07/16 06:43:59;;;;;;;;;;;;;;;;;;1390956;41;20043;-82
2021/07/16 06:44:59;;;;;;;;;;;;;;;;;;1412405;41;19973;-83
2021/07/16 06:46:00;;;;;;;;;;;;;;;;;;1410553;41;19980;-83
2021/07/16 06:47:00;;;;;;;;;;;;;;;;;;1413547;41;20728;-84
2021/07/16 06:48:01;;;;;;;;;;;;;;;;;;1408698;41;20063;-84
2021/07/16 06:49:01;;;;;;;;;;;;;;;;;;1405912;42;19978;-81
2021/07/16 06:50:05;;;;;;;;;;;;;;;;;;1405509;42;20459;-82
2021/07/16 06:51:05;;;;;;;;;;;;;;;;;;1404482;42;20111;-84
2021/07/16 06:52:06;;;;;;;;;;;;;;;;;;1407252;41;19958;-81
2021/07/16 06:53:06;;;;;;;;;;;;;;;;;;1426555;41;20110;-78
2021/07/16 06:54:07;;;;;;;;;;;;;;;;;;1418364;41;19940;-79
2021/07/16 06:55:07;;;;;;;;;;;;;;;;;;1411718;41;19971;-75
2021/07/16 06:56:08;;;;;;;;;;;;;;;;;;1411532;41;19945;-82